Terminal Aerodrome Forecast
Issued by NWS Tulsa, OK

Home | Current Version | Previous Version | Text Only | Print | Product List | Glossary On
Versions: 1 2 3 4 5 6 7 8 9 10 11 12 13 14 15
000
FTUS44 KTSA 301700
TAFTUL
TAF
KTUL 301739Z 3018/3118 VRB03KT 2SM RA BR FEW007 OVC025
      TEMPO 3018/3022 1SM +RA BKN015
     FM302200 13010KT 2SM -RA OVC025
     FM310300 09009KT 3SM -RA OVC015
     FM310900 03004KT P6SM OVC007=

USA.gov is the U.S. government's official web portal to all federal, state and local government web resources and services.